Time;durP1;ratioP1;P1;durP2;ratioP2;P2;SDS_P1;SDS_P2;PMS_P1;PMS_P2;Temp;Humidity;BMP_temperature;BMP_pressure;BME280_temperature;BME280_humidity;BME280_pressure;Samples;Min_cycle;Max_cycle;Signal;HPM_P1;HPM_P2
2021/06/09 00:00:52;;;;;;;22.70;20.10;;;14.60;99.90;;;;;;4956614;29;20173;-85
2021/06/09 00:03:20;;;;;;;22.40;20.10;;;14.70;99.90;;;;;;4949384;29;20196;-85
2021/06/09 00:05:46;;;;;;;23.10;20.50;;;14.70;99.90;;;;;;4963165;29;20197;-86
2021/06/09 00:08:13;;;;;;;23.40;20.23;;;14.70;99.90;;;;;;4945122;29;20213;-85
2021/06/09 00:10:38;;;;;;;22.80;20.13;;;14.70;99.90;;;;;;4962664;29;20180;-86
2021/06/09 00:13:04;;;;;;;24.43;20.37;;;14.70;99.90;;;;;;4962422;29;20189;-85
2021/06/09 00:15:30;;;;;;;23.33;20.80;;;14.60;99.90;;;;;;4945054;28;20205;-86
2021/06/09 00:17:55;;;;;;;25.00;19.37;;;14.60;99.90;;;;;;4962696;29;20192;-85
2021/06/09 00:20:24;;;;;;;21.07;18.97;;;14.60;99.90;;;;;;4945433;29;20259;-85
2021/06/09 00:22:49;;;;;;;21.90;19.57;;;14.60;99.90;;;;;;4962438;29;20232;-85
2021/06/09 00:25:17;;;;;;;24.77;20.23;;;14.50;99.90;;;;;;4945042;29;20180;-86
2021/06/09 00:27:50;;;;;;;24.60;20.77;;;14.50;99.90;;;;;;4945073;29;20188;-86
2021/06/09 00:30:26;;;;;;;24.73;20.93;;;14.50;99.90;;;;;;4944750;29;20299;-86
2021/06/09 00:32:51;;;;;;;23.80;21.30;;;14.40;99.90;;;;;;4944311;29;20211;-86
2021/06/09 00:35:17;;;;;;;24.40;21.80;;;14.40;99.90;;;;;;4944762;29;20624;-85
2021/06/09 00:37:43;;;;;;;25.20;22.60;;;14.40;99.90;;;;;;4962957;29;20178;-86
2021/06/09 00:40:11;;;;;;;26.83;23.37;;;14.30;99.90;;;;;;4944502;29;20224;-86
2021/06/09 00:42:37;;;;;;;29.30;23.93;;;14.30;99.90;;;;;;4945218;29;20192;-86
2021/06/09 00:45:05;;;;;;;27.83;23.70;;;14.30;99.90;;;;;;4944501;29;20181;-86
2021/06/09 00:47:30;;;;;;;28.33;23.53;;;14.30;99.90;;;;;;4944692;29;20212;-86
2021/06/09 00:49:56;;;;;;;27.97;24.93;;;14.30;99.90;;;;;;4961998;29;20185;-86
2021/06/09 00:52:23;;;;;;;28.97;24.10;;;14.30;99.90;;;;;;4944411;29;20189;-86
2021/06/09 00:54:50;;;;;;;29.87;24.63;;;14.30;99.90;;;;;;4943956;29;20225;-86
2021/06/09 00:57:17;;;;;;;32.20;25.83;;;14.30;99.90;;;;;;4962855;29;20569;-86
2021/06/09 00:59:42;;;;;;;29.90;24.47;;;14.30;99.90;;;;;;4962119;29;20213;-87
2021/06/09 01:02:08;;;;;;;27.20;23.90;;;14.30;99.90;;;;;;4944718;29;20192;-86
2021/06/09 01:04:34;;;;;;;30.80;25.47;;;14.20;99.90;;;;;;4961378;29;20181;-86
2021/06/09 01:07:02;;;;;;;30.07;26.00;;;14.20;99.90;;;;;;4962378;29;20253;-86
2021/06/09 01:09:27;;;;;;;29.00;25.03;;;14.20;99.90;;;;;;4944875;29;20188;-86
2021/06/09 01:11:55;;;;;;;30.00;24.37;;;14.10;99.90;;;;;;4943977;29;20595;-85
2021/06/09 01:14:21;;;;;;;28.83;24.77;;;14.20;99.90;;;;;;4944286;29;20654;-86
2021/06/09 01:16:48;;;;;;;29.13;25.10;;;14.20;99.90;;;;;;4944442;29;20296;-86
2021/06/09 01:19:15;;;;;;;29.63;25.43;;;14.10;99.90;;;;;;4944148;29;20287;-86
2021/06/09 01:21:41;;;;;;;32.30;27.30;;;14.10;99.90;;;;;;4944206;29;20269;-85
2021/06/09 01:24:07;;;;;;;31.33;26.33;;;14.10;99.90;;;;;;4944305;29;20618;-86
2021/06/09 01:26:34;;;;;;;35.30;25.80;;;14.10;99.90;;;;;;4944099;29;20200;-85
2021/06/09 01:29:01;;;;;;;29.67;25.43;;;14.10;99.90;;;;;;4944330;29;20538;-86
2021/06/09 01:31:27;;;;;;;29.53;24.77;;;14.10;99.90;;;;;;4943992;29;20562;-85
2021/06/09 01:33:53;;;;;;;30.90;26.03;;;14.10;99.90;;;;;;4960884;29;20627;-85
2021/06/09 01:36:23;;;;;;;32.40;25.40;;;14.00;99.90;;;;;;4944308;29;20212;-85
2021/06/09 01:38:51;;;;;;;31.17;25.47;;;14.00;99.90;;;;;;4961643;29;20567;-85
2021/06/09 01:41:22;;;;;;;33.37;27.03;;;14.00;99.90;;;;;;4944070;29;20181;-85
2021/06/09 01:43:47;;;;;;;31.77;26.50;;;14.00;99.90;;;;;;4961712;29;20600;-85
2021/06/09 01:46:16;;;;;;;31.43;26.33;;;14.00;99.90;;;;;;4961306;29;20224;-85
2021/06/09 01:48:42;;;;;;;30.87;27.07;;;14.00;99.90;;;;;;4944197;29;20211;-85
2021/06/09 01:51:08;;;;;;;34.43;26.27;;;13.90;99.90;;;;;;4943644;29;20551;-86
2021/06/09 01:53:34;;;;;;;30.57;25.77;;;13.90;99.90;;;;;;4943685;29;20190;-85
2021/06/09 01:56:00;;;;;;;34.00;25.83;;;13.80;99.90;;;;;;4944088;29;20205;-86
2021/06/09 01:58:26;;;;;;;30.00;25.93;;;13.80;99.90;;;;;;4944025;29;20255;-85
2021/06/09 02:00:53;;;;;;;32.87;26.13;;;13.70;99.90;;;;;;4962090;29;20646;-85
2021/06/09 02:03:19;;;;;;;30.90;25.93;;;13.70;99.90;;;;;;4944169;29;20240;-85
2021/06/09 02:05:45;;;;;;;29.73;25.20;;;13.60;99.90;;;;;;4943545;29;20200;-85
2021/06/09 02:08:14;;;;;;;28.20;24.43;;;13.60;99.90;;;;;;4961781;29;20169;-85
2021/06/09 02:10:41;;;;;;;29.83;25.60;;;13.60;99.90;;;;;;4961112;29;20668;-85
2021/06/09 02:13:11;;;;;;;31.77;25.63;;;13.60;99.90;;;;;;4961084;29;20681;-85
2021/06/09 02:15:37;;;;;;;28.30;24.17;;;13.60;99.90;;;;;;4960727;29;20201;-85
2021/06/09 02:18:11;;;;;;;27.83;23.67;;;13.60;99.90;;;;;;4943922;29;20276;-85
2021/06/09 02:20:48;;;;;;;28.70;24.53;;;13.60;99.90;;;;;;4943184;29;20608;-86
2021/06/09 02:23:22;;;;;;;29.20;24.50;;;13.50;99.90;;;;;;4944004;29;20187;-86
2021/06/09 02:25:51;;;;;;;32.17;24.33;;;13.60;99.90;;;;;;4961523;29;20196;-86
2021/06/09 02:28:19;;;;;;;31.70;23.63;;;13.50;99.90;;;;;;4943829;29;20274;-86
2021/06/09 02:30:46;;;;;;;27.60;22.37;;;13.50;99.90;;;;;;4961580;29;20184;-86
2021/06/09 02:33:14;;;;;;;26.83;22.07;;;13.40;99.90;;;;;;4943481;29;20181;-85
2021/06/09 02:35:41;;;;;;;24.50;21.33;;;13.40;99.90;;;;;;4960791;29;20201;-85
2021/06/09 02:38:08;;;;;;;24.17;21.57;;;13.30;99.90;;;;;;4943980;29;20185;-85
2021/06/09 02:40:35;;;;;;;24.43;20.93;;;13.30;99.90;;;;;;4947432;29;20242;-85
2021/06/09 02:43:01;;;;;;;25.23;21.87;;;13.30;99.90;;;;;;4948030;29;20231;-85
2021/06/09 02:45:27;;;;;;;24.23;21.17;;;13.30;99.90;;;;;;4965510;29;20187;-85
2021/06/09 02:47:58;;;;;;;22.37;19.97;;;13.30;99.90;;;;;;4963278;29;20188;-86
2021/06/09 02:50:24;;;;;;;22.70;19.50;;;13.30;99.90;;;;;;4972161;29;20635;-86
2021/06/09 02:53:06;;;;;;;20.90;18.70;;;13.30;99.90;;;;;;4972067;29;20181;-86
2021/06/09 02:55:57;;;;;;;22.43;19.07;;;13.20;99.90;;;;;;4954924;29;20218;-86
2021/06/09 02:58:46;;;;;;;22.07;19.23;;;13.20;99.90;;;;;;4954499;29;20240;-86
2021/06/09 03:01:35;;;;;;;24.27;20.97;;;13.20;99.90;;;;;;4954733;29;20229;-86
2021/06/09 03:04:16;;;;;;;22.53;19.93;;;13.30;99.90;;;;;;4957652;29;20558;-86
2021/06/09 03:07:16;;;;;;;23.93;20.63;;;13.30;99.90;;;;;;4953293;29;20560;-86
2021/06/09 03:10:06;;;;;;;23.30;20.57;;;13.30;99.90;;;;;;4970172;29;20276;-86
2021/06/09 03:12:47;;;;;;;23.53;20.83;;;13.20;99.90;;;;;;4952805;29;20177;-86
2021/06/09 03:15:18;;;;;;;27.33;21.73;;;13.20;99.90;;;;;;4952954;29;20244;-86
2021/06/09 03:17:43;;;;;;;27.60;20.70;;;13.10;99.90;;;;;;4952488;29;20245;-86
2021/06/09 03:20:23;;;;;;;22.37;19.90;;;13.20;99.90;;;;;;4969097;29;20251;-86
2021/06/09 03:22:57;;;;;;;20.53;18.33;;;13.20;99.90;;;;;;4952181;29;20189;-86
2021/06/09 03:25:30;;;;;;;22.47;20.07;;;13.20;99.90;;;;;;4952203;29;20205;-86
2021/06/09 03:28:17;;;;;;;21.50;19.20;;;13.20;99.90;;;;;;4952213;29;20177;-86
2021/06/09 03:30:46;;;;;;;22.90;18.53;;;13.20;99.90;;;;;;4952152;29;20184;-86
2021/06/09 03:33:13;;;;;;;19.63;17.50;;;13.20;99.90;;;;;;4951581;29;20185;-86
2021/06/09 03:36:19;;;;;;;20.93;18.63;;;13.20;99.90;;;;;;4953047;29;20285;-85
2021/06/09 03:39:01;;;;;;;21.87;18.67;;;13.20;99.90;;;;;;4968625;29;20242;-86
2021/06/09 03:41:35;;;;;;;20.50;18.00;;;13.10;99.90;;;;;;4951759;29;20627;-86
2021/06/09 03:44:03;;;;;;;20.67;18.47;;;13.10;99.90;;;;;;4968289;29;20172;-85
2021/06/09 03:46:29;;;;;;;19.90;17.50;;;13.00;99.90;;;;;;4951551;29;20207;-86
2021/06/09 03:48:57;;;;;;;23.53;18.60;;;13.10;99.90;;;;;;4950810;29;20220;-86
2021/06/09 03:51:25;;;;;;;22.87;18.03;;;13.10;99.90;;;;;;4967950;28;20188;-87
2021/06/09 03:53:54;;;;;;;21.53;18.40;;;13.10;99.90;;;;;;4951537;29;20188;-86
2021/06/09 03:56:20;;;;;;;19.53;17.43;;;13.10;99.90;;;;;;4968617;29;20586;-86
2021/06/09 03:58:49;;;;;;;20.00;17.20;;;13.10;99.90;;;;;;4951668;29;20219;-86
2021/06/09 04:01:15;;;;;;;22.07;17.97;;;13.00;99.90;;;;;;4968444;29;20173;-86
2021/06/09 04:03:44;;;;;;;21.27;17.17;;;13.00;99.90;;;;;;4950845;29;20216;-86
2021/06/09 04:06:14;;;;;;;19.73;17.37;;;13.00;99.90;;;;;;4951076;29;20689;-86
2021/06/09 04:08:41;;;;;;;19.17;16.83;;;13.10;99.90;;;;;;4951244;29;20192;-86
2021/06/09 04:11:08;;;;;;;20.40;18.30;;;13.10;99.90;;;;;;4966212;29;20195;-85
2021/06/09 04:13:36;;;;;;;19.50;17.40;;;13.10;99.90;;;;;;4960408;29;20235;-85
2021/06/09 04:16:03;;;;;;;19.97;17.33;;;13.20;99.90;;;;;;4945783;29;20212;-86
2021/06/09 04:18:29;;;;;;;18.23;16.17;;;13.10;99.90;;;;;;4949698;29;20196;-86
2021/06/09 04:20:57;;;;;;;20.07;17.77;;;13.10;99.90;;;;;;4966334;29;20176;-86
2021/06/09 04:23:23;;;;;;;19.80;17.13;;;13.10;99.90;;;;;;4966468;29;20178;-86
2021/06/09 04:25:49;;;;;;;20.23;17.30;;;13.00;99.90;;;;;;4967527;29;20197;-85
2021/06/09 04:28:19;;;;;;;18.97;16.97;;;13.10;99.90;;;;;;4949569;29;20618;-86
2021/06/09 04:30:45;;;;;;;19.57;16.77;;;13.00;99.90;;;;;;4966529;29;20175;-86
2021/06/09 04:33:12;;;;;;;20.50;17.37;;;13.10;99.90;;;;;;4949037;29;20188;-86
2021/06/09 04:35:44;;;;;;;18.87;16.67;;;13.10;99.90;;;;;;4949782;29;20207;-86
2021/06/09 04:38:16;;;;;;;20.27;17.37;;;13.10;99.90;;;;;;4966048;29;20156;-86
2021/06/09 04:40:42;;;;;;;20.70;18.47;;;13.10;99.90;;;;;;4949344;29;20187;-86
2021/06/09 04:43:09;;;;;;;24.43;17.73;;;13.10;99.90;;;;;;4967533;29;20249;-86
2021/06/09 04:45:35;;;;;;;30.83;17.63;;;13.20;99.90;;;;;;4948673;29;20296;-86
2021/06/09 04:48:01;;;;;;;23.70;17.60;;;13.10;99.90;;;;;;4948872;29;20177;-86
2021/06/09 04:50:28;;;;;;;44.27;17.77;;;13.20;99.90;;;;;;4949115;29;20185;-85
2021/06/09 04:53:09;;;;;;;38.53;18.07;;;13.20;99.90;;;;;;4949194;29;20181;-86
2021/06/09 04:55:36;;;;;;;44.57;18.97;;;13.30;99.90;;;;;;4949131;29;20232;-85
2021/06/09 04:58:01;;;;;;;19.90;16.73;;;13.30;99.90;;;;;;4949734;29;20196;-85
2021/06/09 05:00:27;;;;;;;19.97;17.87;;;13.30;99.90;;;;;;4948795;29;20287;-85
2021/06/09 05:02:53;;;;;;;47.07;17.17;;;13.30;99.90;;;;;;4948504;29;20221;-85
2021/06/09 05:05:18;;;;;;;22.80;17.47;;;13.30;99.90;;;;;;4949156;29;20599;-85
2021/06/09 05:07:44;;;;;;;21.43;16.33;;;13.20;99.90;;;;;;4949560;29;20204;-85
2021/06/09 05:10:10;;;;;;;19.10;17.10;;;13.30;99.90;;;;;;4966324;29;20224;-86
2021/06/09 05:12:41;;;;;;;18.70;16.70;;;13.30;99.90;;;;;;4947487;29;20646;-86
2021/06/09 05:15:10;;;;;;;19.53;17.47;;;13.30;99.90;;;;;;4966396;29;20184;-86
2021/06/09 05:17:45;;;;;;;18.90;16.90;;;13.40;99.90;;;;;;4966240;29;20177;-86
2021/06/09 05:20:19;;;;;;;18.87;16.87;;;13.40;99.90;;;;;;4965062;29;20200;-86
2021/06/09 05:23:13;;;;;;;20.50;18.30;;;13.40;99.90;;;;;;4943019;29;20175;-85
2021/06/09 05:25:40;;;;;;;24.13;18.17;;;13.60;99.90;;;;;;4939308;29;20289;-85
2021/06/09 05:28:07;;;;;;;22.17;18.83;;;13.70;99.90;;;;;;4965132;29;20184;-85
2021/06/09 05:30:34;;;;;;;21.03;18.83;;;13.80;99.90;;;;;;4965471;29;20182;-85
2021/06/09 05:33:03;;;;;;;23.70;20.43;;;13.80;99.90;;;;;;4946128;29;20643;-85
2021/06/09 05:35:30;;;;;;;20.60;18.50;;;13.90;99.90;;;;;;4965249;29;20193;-86
2021/06/09 05:37:56;;;;;;;21.37;19.07;;;14.00;99.90;;;;;;4966064;29;20184;-86
2021/06/09 05:40:22;;;;;;;21.93;19.63;;;14.10;99.90;;;;;;4965560;29;20666;-86
2021/06/09 05:42:48;;;;;;;23.70;19.70;;;14.30;99.90;;;;;;4948494;29;20638;-86
2021/06/09 05:45:24;;;;;;;23.30;19.33;;;14.30;99.90;;;;;;4948507;29;20184;-86
2021/06/09 05:47:49;;;;;;;26.13;21.57;;;14.40;99.90;;;;;;4948182;29;20177;-86
2021/06/09 05:50:18;;;;;;;22.97;20.60;;;14.50;99.90;;;;;;4948166;29;20689;-86
2021/06/09 05:52:45;;;;;;;23.30;20.80;;;14.70;99.90;;;;;;4948107;29;20192;-86
2021/06/09 05:55:22;;;;;;;23.27;20.83;;;14.80;99.90;;;;;;4966166;29;20201;-86
2021/06/09 05:57:49;;;;;;;23.80;21.13;;;14.90;99.90;;;;;;4948856;29;20188;-85
2021/06/09 06:00:17;;;;;;;23.10;20.43;;;15.00;99.90;;;;;;4947684;29;20207;-85
2021/06/09 06:02:44;;;;;;;22.80;20.37;;;15.10;99.90;;;;;;4950230;29;20539;-85
2021/06/09 06:05:10;;;;;;;20.20;18.13;;;15.30;99.90;;;;;;4948788;29;20666;-85
2021/06/09 06:07:36;;;;;;;20.83;18.27;;;15.50;99.90;;;;;;4947854;29;20179;-84
2021/06/09 06:10:05;;;;;;;19.53;17.17;;;15.40;99.90;;;;;;4947442;29;20185;-86
2021/06/09 06:12:31;;;;;;;18.87;16.87;;;15.50;99.90;;;;;;4947042;29;20192;-85
2021/06/09 06:14:57;;;;;;;19.93;16.30;;;15.60;99.90;;;;;;4964526;28;20174;-85
2021/06/09 06:17:23;;;;;;;17.60;15.50;;;15.70;99.90;;;;;;4946459;29;20204;-84
2021/06/09 06:19:50;;;;;;;17.60;15.47;;;15.70;99.90;;;;;;4964129;29;20284;-84
2021/06/09 06:22:18;;;;;;;18.30;15.50;;;15.80;99.90;;;;;;4965178;29;20169;-82
2021/06/09 06:24:49;;;;;;;16.47;14.37;;;15.90;99.90;;;;;;4947257;29;20256;-83
2021/06/09 06:27:16;;;;;;;20.00;14.77;;;16.00;99.90;;;;;;4947581;29;20208;-83
2021/06/09 06:29:44;;;;;;;19.43;15.20;;;16.10;99.90;;;;;;4963890;29;20173;-83
2021/06/09 06:32:12;;;;;;;17.87;15.97;;;16.10;99.90;;;;;;4946445;29;20240;-83
2021/06/09 06:34:52;;;;;;;19.93;15.90;;;16.20;99.90;;;;;;4946832;29;20192;-83
2021/06/09 06:37:21;;;;;;;16.73;15.00;;;16.20;99.90;;;;;;4947928;29;20231;-83
2021/06/09 06:39:47;;;;;;;17.07;15.27;;;16.40;99.90;;;;;;4965007;29;20200;-83
2021/06/09 06:42:13;;;;;;;19.63;15.67;;;16.40;99.90;;;;;;4947624;29;20183;-83
2021/06/09 06:44:43;;;;;;;17.63;15.80;;;16.50;99.90;;;;;;4948277;29;20355;-83
2021/06/09 06:47:09;;;;;;;16.90;15.07;;;16.60;99.90;;;;;;4965852;29;20628;-83
2021/06/09 06:49:36;;;;;;;17.40;15.60;;;16.60;99.90;;;;;;4947606;29;20204;-83
2021/06/09 06:52:02;;;;;;;18.63;14.57;;;16.70;99.90;;;;;;4948305;29;20629;-82
2021/06/09 06:54:28;;;;;;;14.87;13.37;;;16.90;99.90;;;;;;4948896;29;20272;-83
2021/06/09 06:56:55;;;;;;;13.27;10.23;;;17.00;99.90;;;;;;4949660;29;20212;-83
2021/06/09 06:59:27;;;;;;;15.53;13.70;;;17.00;99.90;;;;;;4949479;29;20216;-83
2021/06/09 07:01:54;;;;;;;16.37;14.10;;;17.10;99.90;;;;;;4948831;29;20183;-83
2021/06/09 07:04:21;;;;;;;16.47;14.60;;;17.10;99.90;;;;;;4967408;29;20184;-83
2021/06/09 07:06:49;;;;;;;16.00;12.87;;;17.10;99.90;;;;;;4949969;29;20203;-83
2021/06/09 07:09:16;;;;;;;15.20;12.40;;;17.20;99.90;;;;;;4949616;29;20189;-83
2021/06/09 07:11:43;;;;;;;13.50;12.17;;;17.30;99.90;;;;;;4967087;29;20331;-83
2021/06/09 07:14:10;;;;;;;12.27;11.07;;;17.40;99.90;;;;;;4966972;29;20192;-83
2021/06/09 07:16:37;;;;;;;12.03;10.73;;;17.50;99.90;;;;;;4950111;29;20205;-83
2021/06/09 07:19:06;;;;;;;14.70;12.30;;;17.50;99.90;;;;;;4967504;29;20193;-83
2021/06/09 07:21:33;;;;;;;13.17;11.50;;;17.60;99.90;;;;;;4966893;29;20697;-83
2021/06/09 07:24:00;;;;;;;12.13;11.00;;;17.80;99.90;;;;;;4951097;29;20188;-83
2021/06/09 07:26:28;;;;;;;11.70;10.50;;;18.00;99.90;;;;;;4955433;29;20201;-84
2021/06/09 07:28:56;;;;;;;15.40;11.40;;;18.00;99.90;;;;;;4969088;29;20185;-82
2021/06/09 07:31:35;;;;;;;11.50;10.20;;;18.00;99.90;;;;;;4968605;29;20631;-83
2021/06/09 07:34:03;;;;;;;14.87;11.23;;;18.10;99.90;;;;;;4951227;29;20606;-83
2021/06/09 07:36:39;;;;;;;12.63;11.37;;;18.20;99.90;;;;;;4969138;29;20201;-83
2021/06/09 07:39:15;;;;;;;15.27;11.80;;;18.30;99.90;;;;;;4969777;29;20248;-84
2021/06/09 07:41:42;;;;;;;13.73;12.27;;;18.50;99.90;;;;;;4952002;29;20682;-83
2021/06/09 07:44:10;;;;;;;15.07;12.60;;;18.60;99.90;;;;;;4969198;29;20177;-83
2021/06/09 07:46:38;;;;;;;15.97;12.47;;;18.90;99.90;;;;;;4950494;29;20204;-83
2021/06/09 07:49:09;;;;;;;13.90;12.40;;;19.10;99.90;;;;;;4969270;29;20181;-83
2021/06/09 07:51:36;;;;;;;14.00;12.37;;;19.30;99.90;;;;;;4950939;29;20209;-83
2021/06/09 07:54:02;;;;;;;15.60;13.23;;;19.60;99.90;;;;;;4950826;29;20209;-83
2021/06/09 07:56:36;;;;;;;15.23;12.23;;;19.80;99.90;;;;;;4968547;29;20203;-83
2021/06/09 07:59:05;;;;;;;17.57;12.83;;;20.10;99.90;;;;;;4968201;29;20250;-83
2021/06/09 08:01:32;;;;;;;15.47;13.30;;;20.40;99.90;;;;;;4968285;29;20641;-83
2021/06/09 08:03:58;;;;;;;20.73;14.10;;;20.70;99.90;;;;;;4950835;29;20187;-84
2021/06/09 08:06:25;;;;;;;14.13;12.73;;;20.90;99.90;;;;;;4967926;29;20202;-83
2021/06/09 08:08:51;;;;;;;15.10;13.50;;;21.10;99.90;;;;;;4968038;29;20186;-84
2021/06/09 08:11:17;;;;;;;14.93;13.00;;;21.20;99.90;;;;;;4945109;29;20285;-83
2021/06/09 08:13:43;;;;;;;14.10;12.70;;;21.20;99.90;;;;;;4960180;29;20281;-84
2021/06/09 08:16:18;;;;;;;14.03;12.60;;;21.10;99.90;;;;;;4949365;29;20217;-84
2021/06/09 08:18:46;;;;;;;13.60;12.20;;;21.10;99.90;;;;;;4949242;29;20203;-84
2021/06/09 08:21:19;;;;;;;13.77;12.30;;;21.20;99.90;;;;;;4949240;29;20215;-84
2021/06/09 08:23:48;;;;;;;13.87;12.47;;;21.30;99.90;;;;;;4949486;29;20187;-84
2021/06/09 08:26:16;;;;;;;13.60;11.73;;;21.30;99.90;;;;;;4949135;29;20212;-85
2021/06/09 08:28:43;;;;;;;14.03;11.63;;;21.10;99.90;;;;;;4967301;29;20213;-84
2021/06/09 08:31:12;;;;;;;14.27;11.97;;;20.90;99.90;;;;;;4947357;29;20371;-84
2021/06/09 08:33:41;;;;;;;12.57;11.30;;;21.00;99.90;;;;;;4967084;29;20195;-84
2021/06/09 08:36:08;;;;;;;12.00;10.80;;;21.30;99.90;;;;;;4949126;29;20208;-84
2021/06/09 08:38:34;;;;;;;11.30;10.20;;;21.70;99.90;;;;;;4949434;29;20229;-84
2021/06/09 08:41:00;;;;;;;12.90;11.53;;;22.20;99.90;;;;;;4966467;29;20239;-84
2021/06/09 08:43:26;;;;;;;12.50;11.20;;;22.80;99.90;;;;;;4967213;29;20173;-84
2021/06/09 08:45:51;;;;;;;12.03;10.63;;;23.30;99.90;;;;;;4949249;29;20207;-84
2021/06/09 08:48:18;;;;;;;11.50;10.40;;;23.80;99.90;;;;;;4965960;29;20174;-84
2021/06/09 08:50:49;;;;;;;11.47;10.30;;;24.10;99.90;;;;;;4948918;29;20209;-85
2021/06/09 08:53:22;;;;;;;10.13;9.13;;;24.60;99.90;;;;;;4948777;29;20186;-85
2021/06/09 08:55:49;;;;;;;10.53;9.43;;;24.80;99.90;;;;;;4965963;29;20209;-84
2021/06/09 08:58:15;;;;;;;10.37;9.30;;;24.70;99.90;;;;;;4966164;29;20632;-82
2021/06/09 09:00:42;;;;;;;10.47;9.57;;;24.60;99.90;;;;;;4965593;29;20201;-82
2021/06/09 09:03:09;;;;;;;9.80;8.63;;;24.40;99.90;;;;;;4964970;29;20234;-82
2021/06/09 09:05:35;;;;;;;9.77;8.37;;;24.30;99.90;;;;;;4965413;29;20203;-82
2021/06/09 09:08:02;;;;;;;9.63;8.63;;;24.40;99.90;;;;;;4964969;29;20189;-82
2021/06/09 09:10:28;;;;;;;13.03;9.83;;;24.60;99.90;;;;;;4948861;29;20573;-82
2021/06/09 09:12:55;;;;;;;10.20;9.27;;;24.60;99.90;;;;;;4965572;29;20276;-82
2021/06/09 09:15:21;;;;;;;10.10;8.53;;;24.60;99.90;;;;;;4948021;29;20181;-82
2021/06/09 09:17:54;;;;;;;13.30;8.60;;;24.80;99.90;;;;;;4947494;29;20212;-82
2021/06/09 09:20:35;;;;;;;9.57;8.67;;;25.20;99.90;;;;;;4948127;29;20237;-82
2021/06/09 09:23:16;;;;;;;9.97;9.00;;;25.40;99.90;;;;;;4964865;29;20189;-82
2021/06/09 09:25:42;;;;;;;10.17;9.17;;;25.50;99.90;;;;;;4964730;29;20203;-82
2021/06/09 09:28:08;;;;;;;10.40;9.40;;;25.50;99.90;;;;;;4965297;29;20618;-83
2021/06/09 09:30:37;;;;;;;12.33;10.07;;;25.20;99.90;;;;;;4947978;29;20189;-82
2021/06/09 09:33:08;;;;;;;12.17;9.13;;;25.00;99.90;;;;;;4947780;29;20189;-82
2021/06/09 09:35:38;;;;;;;10.40;9.17;;;24.90;99.90;;;;;;4947989;29;20207;-81
2021/06/09 09:38:14;;;;;;;10.27;9.23;;;24.60;99.90;;;;;;4948164;29;20183;-83
2021/06/09 09:41:00;;;;;;;10.47;9.27;;;24.10;99.90;;;;;;4946848;29;20209;-83
2021/06/09 09:43:45;;;;;;;9.97;8.97;;;24.00;99.90;;;;;;4947051;29;20272;-85
2021/06/09 09:46:17;;;;;;;12.87;9.67;;;24.30;99.90;;;;;;4947469;29;20613;-82
2021/06/09 09:49:00;;;;;;;9.60;8.80;;;24.60;99.90;;;;;;4963136;28;20650;-82
2021/06/09 09:51:29;;;;;;;9.77;8.87;;;25.10;99.90;;;;;;4964469;29;20526;-82
2021/06/09 09:53:56;;;;;;;9.10;8.27;;;25.30;99.90;;;;;;4946635;29;20181;-82
2021/06/09 09:56:23;;;;;;;8.53;7.73;;;25.50;99.90;;;;;;4946873;29;20226;-82
2021/06/09 09:59:03;;;;;;;10.13;9.07;;;25.60;99.90;;;;;;4947361;29;20573;-82
2021/06/09 10:01:30;;;;;;;9.47;8.37;;;25.90;99.90;;;;;;4963745;29;20159;-82
2021/06/09 10:03:59;;;;;;;9.10;8.07;;;25.90;99.90;;;;;;4947064;29;20624;-82
2021/06/09 10:06:27;;;;;;;9.00;8.17;;;26.00;99.90;;;;;;4946511;29;20196;-83
2021/06/09 10:08:55;;;;;;;12.53;10.07;;;26.30;99.90;;;;;;4945911;29;20191;-82
2021/06/09 10:11:23;;;;;;;10.73;9.73;;;26.60;99.90;;;;;;4945862;29;20246;-82
2021/06/09 10:13:49;;;;;;;10.37;9.47;;;26.50;99.90;;;;;;4945598;29;20602;-82
2021/06/09 10:16:29;;;;;;;10.40;9.40;;;26.20;99.90;;;;;;4963556;29;20283;-82
2021/06/09 10:19:00;;;;;;;13.10;10.80;;;25.80;99.90;;;;;;4946549;29;20246;-83
2021/06/09 10:21:26;;;;;;;11.13;10.07;;;25.70;99.90;;;;;;4964943;29;20166;-82
2021/06/09 10:23:58;;;;;;;9.20;8.20;;;25.90;99.90;;;;;;4947837;29;20182;-85
2021/06/09 10:26:24;;;;;;;9.67;8.73;;;26.10;99.90;;;;;;4946681;29;20610;-83
2021/06/09 10:28:57;;;;;;;12.53;8.97;;;25.70;99.90;;;;;;4946179;29;20194;-82
2021/06/09 10:31:28;;;;;;;10.43;9.43;;;25.10;99.90;;;;;;4946902;29;20184;-84
2021/06/09 10:33:55;;;;;;;11.57;9.63;;;24.60;99.90;;;;;;4946993;29;20192;-84
2021/06/09 10:36:21;;;;;;;10.97;9.47;;;24.20;99.90;;;;;;4964440;29;20197;-84
2021/06/09 10:38:48;;;;;;;10.57;9.67;;;23.80;99.90;;;;;;4947451;29;20298;-84
2021/06/09 10:41:15;;;;;;;11.20;9.20;;;24.10;99.90;;;;;;4947413;29;20188;-84
2021/06/09 10:43:47;;;;;;;9.93;8.70;;;24.90;99.90;;;;;;4948283;29;20195;-84
2021/06/09 10:46:26;;;;;;;9.73;8.83;;;25.90;99.90;;;;;;4948237;29;20204;-85
2021/06/09 10:49:00;;;;;;;14.20;8.70;;;26.70;99.90;;;;;;4966270;29;20175;-84
2021/06/09 10:51:27;;;;;;;9.53;8.60;;;27.30;99.90;;;;;;4952342;29;20177;-84
2021/06/09 10:53:52;;;;;;;10.60;8.23;;;27.60;99.90;;;;;;4965600;29;20192;-84
2021/06/09 10:56:19;;;;;;;10.07;7.03;;;27.80;99.90;;;;;;4947656;29;20208;-83
2021/06/09 10:58:46;;;;;;;10.43;8.07;;;27.40;99.90;;;;;;4965903;29;20181;-83
2021/06/09 11:01:14;;;;;;;8.83;7.57;;;26.80;99.90;;;;;;4948121;29;20180;-83
2021/06/09 11:03:46;;;;;;;9.40;7.47;;;26.10;99.90;;;;;;4952610;29;20233;-84
2021/06/09 11:06:12;;;;;;;8.70;7.90;;;25.30;99.90;;;;;;4969831;29;20193;-84
2021/06/09 11:08:38;;;;;;;9.37;8.23;;;24.80;99.90;;;;;;4970359;29;20184;-84
2021/06/09 11:11:18;;;;;;;8.70;7.80;;;24.30;99.90;;;;;;4953198;29;20212;-84
2021/06/09 11:13:46;;;;;;;7.97;7.17;;;24.90;99.90;;;;;;4952869;29;20203;-84
2021/06/09 11:16:15;;;;;;;8.20;7.50;;;25.80;99.90;;;;;;4952801;29;20222;-84
2021/06/09 11:18:43;;;;;;;9.03;7.43;;;26.70;99.90;;;;;;4968598;29;20184;-84
2021/06/09 11:21:11;;;;;;;7.40;6.60;;;27.40;99.90;;;;;;4969819;29;20172;-84
2021/06/09 11:23:40;;;;;;;6.60;6.00;;;28.10;99.90;;;;;;4952447;29;20197;-84
2021/06/09 11:26:07;;;;;;;7.93;5.90;;;28.60;99.90;;;;;;4952548;29;20260;-84
2021/06/09 11:28:34;;;;;;;7.37;6.67;;;28.60;99.90;;;;;;4952902;29;20177;-84
2021/06/09 11:31:02;;;;;;;6.67;5.97;;;29.10;99.90;;;;;;4952866;29;20189;-84
2021/06/09 11:33:34;;;;;;;8.60;7.07;;;28.50;99.90;;;;;;4952692;29;20173;-84
2021/06/09 11:36:03;;;;;;;8.00;6.30;;;28.30;99.90;;;;;;4952702;29;20207;-84
2021/06/09 11:38:32;;;;;;;8.00;6.50;;;28.30;99.90;;;;;;4953095;29;20184;-84
2021/06/09 11:40:58;;;;;;;7.47;6.67;;;27.40;99.90;;;;;;4969268;29;20188;-84
2021/06/09 11:43:48;;;;;;;7.53;6.87;;;26.50;99.90;;;;;;4951689;29;20181;-84
2021/06/09 11:46:20;;;;;;;7.53;6.73;;;25.80;99.90;;;;;;4949978;29;20637;-84
2021/06/09 11:49:05;;;;;;;7.80;6.97;;;25.30;99.90;;;;;;4967195;29;20179;-84
2021/06/09 11:51:34;;;;;;;8.17;6.50;;;24.90;99.90;;;;;;4949653;29;20191;-84
2021/06/09 11:54:17;;;;;;;7.40;6.63;;;24.50;99.90;;;;;;4966769;29;20235;-84
2021/06/09 11:56:47;;;;;;;7.10;6.40;;;24.20;99.90;;;;;;4950242;29;20198;-84
2021/06/09 11:59:28;;;;;;;9.07;8.03;;;24.10;99.90;;;;;;4967650;29;20208;-81
2021/06/09 12:01:58;;;;;;;8.30;7.60;;;24.20;99.90;;;;;;4966665;29;20172;-80
2021/06/09 12:04:28;;;;;;;11.20;6.30;;;25.80;99.90;;;;;;4949099;29;20183;-79
2021/06/09 12:06:59;;;;;;;8.53;6.63;;;26.70;99.90;;;;;;4948985;29;20265;-80
2021/06/09 12:09:40;;;;;;;10.57;6.30;;;26.50;99.90;;;;;;4950141;29;20195;-81
2021/06/09 12:12:14;;;;;;;8.43;6.50;;;25.90;99.90;;;;;;4967032;28;20189;-80
2021/06/09 12:14:45;;;;;;;8.23;5.80;;;25.10;99.90;;;;;;4966107;29;20258;-80
2021/06/09 12:17:11;;;;;;;12.63;5.67;;;24.30;99.90;;;;;;4949582;29;20201;-81
2021/06/09 12:20:01;;;;;;;9.63;6.07;;;24.20;99.90;;;;;;4949460;29;20296;-80
2021/06/09 12:22:31;;;;;;;7.67;5.60;;;24.70;99.90;;;;;;4939175;29;20189;-80
2021/06/09 12:24:58;;;;;;;6.50;5.90;;;24.40;99.90;;;;;;4949941;29;20235;-78
2021/06/09 12:27:24;;;;;;;6.40;5.90;;;24.00;99.90;;;;;;4966209;29;20202;-81
2021/06/09 12:29:50;;;;;;;6.47;5.83;;;23.70;99.90;;;;;;4964541;29;20549;-81
2021/06/09 12:32:30;;;;;;;7.23;4.63;;;23.50;99.90;;;;;;4966772;29;20636;-82
2021/06/09 12:35:06;;;;;;;6.20;5.10;;;24.70;99.90;;;;;;4948656;29;20186;-82
2021/06/09 12:37:34;;;;;;;7.00;5.10;;;26.20;99.90;;;;;;4947393;29;20178;-81
2021/06/09 12:40:10;;;;;;;6.37;4.77;;;27.40;99.90;;;;;;4948902;29;20229;-81
2021/06/09 12:42:37;;;;;;;6.00;4.30;;;28.10;99.90;;;;;;4966269;29;20516;-81